createdAt,value
2018-03-03T00:00:18.361Z,51.50
2018-03-03T00:02:44.667Z,51.60
2018-03-03T00:05:11.076Z,51.90
2018-03-03T00:07:37.409Z,52.00
2018-03-03T00:10:03.756Z,52.20
2018-03-03T00:12:30.042Z,52.20
2018-03-03T00:14:56.330Z,52.40
2018-03-03T00:17:23.656Z,52.50
2018-03-03T00:19:50.073Z,52.60
2018-03-03T00:22:23.631Z,52.50
2018-03-03T00:24:50.684Z,52.20
2018-03-03T00:27:17.821Z,52.00
2018-03-03T00:29:44.139Z,51.90
2018-03-03T00:32:10.391Z,52.10
2018-03-03T00:34:36.857Z,52.50
2018-03-03T00:37:03.142Z,52.40
2018-03-03T00:39:29.453Z,52.40
2018-03-03T00:41:55.756Z,52.70
2018-03-03T00:44:22.022Z,52.80
2018-03-03T00:46:48.539Z,52.70
2018-03-03T00:49:14.847Z,52.80
2018-03-03T00:51:41.099Z,52.80
2018-03-03T00:54:07.390Z,52.80
2018-03-03T00:56:33.705Z,52.80
2018-03-03T00:59:00.056Z,52.80
2018-03-03T01:01:26.433Z,52.40
2018-03-03T01:03:52.751Z,52.50
2018-03-03T01:06:19.132Z,52.30
2018-03-03T01:08:45.411Z,51.40
2018-03-03T01:11:11.720Z,51.60
2018-03-03T01:13:38.780Z,51.30
2018-03-03T01:16:05.847Z,50.90
2018-03-03T01:18:32.212Z,50.90
2018-03-03T01:20:58.489Z,51.20
2018-03-03T01:23:24.809Z,51.50
2018-03-03T01:25:51.128Z,51.90
2018-03-03T01:28:18.157Z,52.00
2018-03-03T01:30:44.462Z,52.00
2018-03-03T01:33:10.762Z,52.40
2018-03-03T01:35:37.773Z,52.60
2018-03-03T01:38:04.067Z,52.60
2018-03-03T01:40:31.104Z,52.80
2018-03-03T01:42:58.211Z,52.80
2018-03-03T01:45:24.579Z,52.80
2018-03-03T01:47:50.883Z,53.50
2018-03-03T01:50:17.924Z,52.90
2018-03-03T01:52:44.195Z,52.90
2018-03-03T01:55:10.516Z,52.90
2018-03-03T01:57:36.856Z,53.00
2018-03-03T02:00:03.167Z,52.80
2018-03-03T02:02:29.815Z,52.80
2018-03-03T02:04:56.186Z,52.90
2018-03-03T02:07:22.467Z,52.80
2018-03-03T02:09:48.959Z,52.90
2018-03-03T02:12:16.116Z,52.90
2018-03-03T02:14:42.422Z,52.90
2018-03-03T02:17:08.723Z,52.90
2018-03-03T02:19:35.095Z,52.90
2018-03-03T02:22:01.839Z,52.90
2018-03-03T02:24:28.893Z,52.90
2018-03-03T02:26:56.012Z,52.70
2018-03-03T02:29:22.341Z,52.70
2018-03-03T02:31:48.724Z,52.80
2018-03-03T02:34:15.025Z,52.90
2018-03-03T02:36:41.457Z,53.00
2018-03-03T02:39:07.757Z,53.30
2018-03-03T02:41:34.136Z,53.20
2018-03-03T02:44:00.513Z,53.30
2018-03-03T02:46:26.998Z,53.40
2018-03-03T02:48:53.517Z,53.10
2018-03-03T02:51:20.778Z,52.90
2018-03-03T02:53:47.103Z,53.10
2018-03-03T02:56:13.418Z,53.40
2018-03-03T02:58:40.398Z,53.80
2018-03-03T03:01:06.695Z,53.80
2018-03-03T03:03:33.041Z,53.90
2018-03-03T03:05:59.428Z,53.90
2018-03-03T03:08:25.747Z,54.00
2018-03-03T03:10:52.734Z,54.20
2018-03-03T03:13:19.222Z,54.20
2018-03-03T03:15:45.502Z,54.30
2018-03-03T03:18:11.953Z,54.30
2018-03-03T03:20:38.278Z,54.40
2018-03-03T03:23:05.336Z,54.10
2018-03-03T03:25:32.438Z,54.40
2018-03-03T03:27:58.726Z,54.40
2018-03-03T03:30:25.806Z,52.90
2018-03-03T03:32:52.927Z,52.70
2018-03-03T03:35:20.232Z,52.70
2018-03-03T03:37:47.289Z,52.70
2018-03-03T03:40:14.306Z,53.20
2018-03-03T03:42:40.574Z,53.20
2018-03-03T03:45:06.896Z,53.30
2018-03-03T03:47:33.261Z,53.80
2018-03-03T03:50:00.311Z,54.30
2018-03-03T03:52:26.657Z,54.30
2018-03-03T03:54:52.926Z,54.50
2018-03-03T03:57:19.301Z,54.60
2018-03-03T03:59:45.698Z,54.50
2018-03-03T04:02:11.982Z,54.70
2018-03-03T04:04:38.290Z,54.80
2018-03-03T04:07:05.557Z,54.70
2018-03-03T04:09:32.596Z,54.90
2018-03-03T04:11:58.910Z,54.90
2018-03-03T04:14:25.212Z,54.90
2018-03-03T04:16:52.302Z,55.20
2018-03-03T04:19:18.611Z,55.20
2018-03-03T04:21:45.656Z,54.80
2018-03-03T04:24:12.040Z,54.80
2018-03-03T04:26:38.316Z,54.90
2018-03-03T04:29:04.612Z,55.10
2018-03-03T04:31:30.915Z,55.20
2018-03-03T04:33:57.437Z,55.00
2018-03-03T04:36:23.731Z,55.00
2018-03-03T04:38:50.786Z,55.20
2018-03-03T04:41:17.811Z,55.30
2018-03-03T04:43:44.126Z,55.30
2018-03-03T04:46:10.442Z,55.20
2018-03-03T04:48:37.453Z,55.20
2018-03-03T04:51:04.453Z,55.00
2018-03-03T04:53:31.499Z,55.00
2018-03-03T04:55:57.782Z,55.00
2018-03-03T04:58:30.334Z,55.40
2018-03-03T05:00:58.287Z,54.80
2018-03-03T05:17:23.907Z,54.80
2018-03-03T05:19:56.272Z,54.80
2018-03-03T05:22:28.537Z,54.60
2018-03-03T05:25:00.845Z,54.50
2018-03-03T05:27:33.108Z,54.60
2018-03-03T05:30:05.528Z,54.60
2018-03-03T05:32:37.768Z,54.60
2018-03-03T05:38:23.806Z,55.00
2018-03-03T05:40:56.395Z,55.30
2018-03-03T05:43:28.637Z,55.30
2018-03-03T05:49:28.338Z,54.80
2018-03-03T05:52:00.612Z,54.90
2018-03-03T05:58:01.602Z,55.30
2018-03-03T06:00:33.905Z,55.20
2018-03-03T06:03:08.993Z,55.20
2018-03-03T06:05:40.069Z,55.10
2018-03-03T06:11:19.725Z,55.20
2018-03-03T06:13:45.927Z,55.70
2018-03-03T06:16:12.064Z,55.80
2018-03-03T06:18:38.268Z,55.50
2018-03-03T06:21:04.447Z,55.50
2018-03-03T06:23:30.646Z,55.60
2018-03-03T06:25:57.607Z,54.50
2018-03-03T06:28:23.747Z,54.30
2018-03-03T06:30:50.199Z,54.50
2018-03-03T06:33:16.377Z,55.00
2018-03-03T06:35:42.533Z,55.40
2018-03-03T06:38:08.689Z,55.50
2018-03-03T06:40:35.601Z,55.50
2018-03-03T06:43:01.908Z,55.50
2018-03-03T06:45:28.187Z,55.60
2018-03-03T06:47:54.393Z,55.40
2018-03-03T06:50:20.569Z,55.50
2018-03-03T06:52:46.736Z,55.80
2018-03-03T06:55:12.894Z,55.80
2018-03-03T06:57:39.067Z,55.70
2018-03-03T07:00:05.996Z,55.60
2018-03-03T07:02:32.207Z,55.60
2018-03-03T07:04:58.365Z,55.60
2018-03-03T07:07:24.555Z,55.50
2018-03-03T07:09:50.737Z,55.50
2018-03-03T07:12:16.932Z,55.60
2018-03-03T07:15:00.688Z,55.40
2018-03-03T07:17:27.500Z,55.40
2018-03-03T07:19:53.674Z,55.30
2018-03-03T07:22:20.613Z,55.00
2018-03-03T07:24:46.779Z,55.00
2018-03-03T07:27:13.702Z,55.30
2018-03-03T07:29:39.876Z,55.30
2018-03-03T07:32:06.793Z,55.50
2018-03-03T07:34:32.965Z,55.50
2018-03-03T07:36:59.939Z,55.80
2018-03-03T07:39:26.149Z,55.80
2018-03-03T07:41:53.129Z,54.50
2018-03-03T07:44:23.633Z,54.40
2018-03-03T07:46:49.901Z,54.40
2018-03-03T07:49:16.863Z,56.90
2018-03-03T07:51:43.862Z,54.50
2018-03-03T07:54:10.074Z,54.40
2018-03-03T07:56:48.394Z,54.10
2018-03-03T07:59:14.766Z,54.10
2018-03-03T08:01:41.042Z,54.50
2018-03-03T08:04:07.358Z,54.20
2018-03-03T08:06:33.592Z,53.50
2018-03-03T08:08:59.929Z,54.10
2018-03-03T08:11:26.209Z,53.90
2018-03-03T08:13:52.453Z,53.30
2018-03-03T08:16:18.739Z,53.20
2018-03-03T08:18:45.061Z,52.10
2018-03-03T08:21:11.354Z,51.60
2018-03-03T08:23:37.719Z,51.40
2018-03-03T08:26:04.029Z,52.00
2018-03-03T08:28:30.325Z,51.90
2018-03-03T08:30:58.346Z,52.60
2018-03-03T08:33:24.621Z,52.50
2018-03-03T08:35:50.878Z,52.80
2018-03-03T08:38:17.185Z,52.70
2018-03-03T08:40:43.462Z,51.40
2018-03-03T08:43:09.709Z,51.60
2018-03-03T08:45:36.048Z,52.20
2018-03-03T08:48:02.329Z,51.90
2018-03-03T08:50:28.841Z,51.90
2018-03-03T08:52:55.913Z,51.50
2018-03-03T08:55:22.178Z,51.40
2018-03-03T08:57:48.450Z,51.20
2018-03-03T09:00:15.582Z,49.40
2018-03-03T09:02:41.887Z,49.40
2018-03-03T09:05:08.906Z,49.30
2018-03-03T09:07:35.198Z,49.20
2018-03-03T09:10:02.459Z,48.90
2018-03-03T09:12:28.979Z,48.90
2018-03-03T09:14:56.121Z,44.40
2018-03-03T09:17:22.481Z,44.40
2018-03-03T09:19:48.929Z,43.10
2018-03-03T09:22:15.238Z,43.60
2018-03-03T09:24:41.796Z,44.40
2018-03-03T09:27:08.350Z,45.40
2018-03-03T09:29:34.664Z,46.80
2018-03-03T09:32:01.662Z,47.30
2018-03-03T09:34:28.412Z,47.30
2018-03-03T09:36:54.785Z,46.70
2018-03-03T09:39:21.188Z,47.20
2018-03-03T09:41:47.475Z,47.80
2018-03-03T09:44:13.748Z,47.90
2018-03-03T09:46:40.200Z,48.40
2018-03-03T09:49:07.244Z,47.00
2018-03-03T09:51:33.710Z,47.00
2018-03-03T09:54:00.022Z,47.60
2018-03-03T09:56:27.065Z,46.80
2018-03-03T09:58:53.407Z,46.80
2018-03-03T10:01:19.656Z,47.60
2018-03-03T10:03:46.673Z,47.70
2018-03-03T10:06:12.992Z,47.70
2018-03-03T10:08:41.281Z,47.50
2018-03-03T10:11:07.587Z,47.40
2018-03-03T10:13:33.887Z,47.10
2018-03-03T10:16:00.252Z,46.10
2018-03-03T10:18:26.592Z,45.60
2018-03-03T10:20:52.850Z,47.50
2018-03-03T10:23:19.187Z,44.70
2018-03-03T10:25:45.472Z,43.80
2018-03-03T10:28:11.727Z,45.10
2018-03-03T10:30:38.092Z,43.60
2018-03-03T10:33:04.433Z,43.20
2018-03-03T10:35:31.495Z,44.40
2018-03-03T10:37:57.913Z,44.40
2018-03-03T10:40:24.245Z,44.30
2018-03-03T10:42:50.666Z,44.20
2018-03-03T10:45:16.944Z,43.60
2018-03-03T10:47:43.241Z,44.20
2018-03-03T10:50:10.579Z,43.60
2018-03-03T10:52:36.829Z,43.10
2018-03-03T10:55:03.133Z,43.10
2018-03-03T10:57:30.263Z,42.80
2018-03-03T11:00:01.317Z,42.70
2018-03-03T11:02:27.680Z,42.90
2018-03-03T11:04:54.738Z,43.30
2018-03-03T11:07:21.780Z,43.70
2018-03-03T11:09:48.544Z,43.70
2018-03-03T11:12:14.839Z,42.50
2018-03-03T11:14:41.123Z,42.60
2018-03-03T11:17:07.435Z,42.30
2018-03-03T11:19:33.725Z,42.10
2018-03-03T11:22:00.791Z,41.90
2018-03-03T11:24:27.062Z,41.90
2018-03-03T11:26:53.463Z,41.50
2018-03-03T11:29:19.762Z,41.30
2018-03-03T11:31:45.973Z,42.00
2018-03-03T11:34:12.367Z,41.70
2018-03-03T11:36:38.875Z,44.00
2018-03-03T11:39:05.168Z,42.30
2018-03-03T11:41:31.586Z,39.70
2018-03-03T11:43:57.892Z,38.50
2018-03-03T11:46:24.944Z,38.60
2018-03-03T11:48:52.444Z,39.20
2018-03-03T11:51:18.745Z,39.20
2018-03-03T11:53:45.026Z,39.70
2018-03-03T11:56:11.358Z,40.50
2018-03-03T11:58:37.766Z,41.30
2018-03-03T12:01:04.824Z,41.30
2018-03-03T12:03:31.881Z,41.70
2018-03-03T12:05:58.259Z,41.40
2018-03-03T12:08:24.538Z,41.40
2018-03-03T12:10:50.958Z,41.80
2018-03-03T12:13:17.230Z,41.50
2018-03-03T12:15:43.497Z,41.60
2018-03-03T12:18:09.874Z,42.00
2018-03-03T12:20:36.131Z,41.60
2018-03-03T12:23:02.443Z,41.50
2018-03-03T12:25:29.592Z,41.60
2018-03-03T12:27:55.993Z,41.60
2018-03-03T12:30:22.262Z,41.40
2018-03-03T12:32:48.685Z,41.50
2018-03-03T12:35:15.024Z,41.30
2018-03-03T12:37:41.461Z,40.50
2018-03-03T12:40:07.909Z,39.90
2018-03-03T12:42:34.230Z,40.10
2018-03-03T12:45:00.523Z,40.80
2018-03-03T12:47:26.796Z,40.90
2018-03-03T12:49:53.158Z,41.40
2018-03-03T12:52:19.417Z,42.00
2018-03-03T12:54:49.176Z,42.30
2018-03-03T12:57:15.431Z,42.30
2018-03-03T12:59:41.752Z,41.90
2018-03-03T13:02:08.014Z,41.80
2018-03-03T13:04:34.284Z,41.90
2018-03-03T13:07:01.295Z,42.00
2018-03-03T13:09:27.589Z,42.00
2018-03-03T13:11:54.615Z,41.70
2018-03-03T13:14:21.932Z,41.70
2018-03-03T13:16:48.294Z,41.10
2018-03-03T13:19:14.580Z,40.50
2018-03-03T13:21:41.763Z,40.80
2018-03-03T13:24:08.864Z,39.70
2018-03-03T13:26:35.144Z,39.80
2018-03-03T13:29:01.914Z,39.20
2018-03-03T13:31:28.294Z,39.40
2018-03-03T13:33:54.608Z,39.80
2018-03-03T13:36:21.078Z,39.30
2018-03-03T13:38:47.350Z,39.70
2018-03-03T13:41:13.893Z,40.00
2018-03-03T13:43:40.162Z,40.80
2018-03-03T13:46:06.512Z,39.20
2018-03-03T13:48:33.558Z,36.80
2018-03-03T13:50:59.882Z,36.70
2018-03-03T13:53:26.222Z,36.50
2018-03-03T13:55:52.466Z,37.10
2018-03-03T13:58:18.751Z,37.00
2018-03-03T14:00:45.769Z,37.80
2018-03-03T14:03:12.031Z,37.80
2018-03-03T14:05:44.423Z,38.30
2018-03-03T14:08:11.505Z,39.00
2018-03-03T14:10:38.475Z,39.70
2018-03-03T14:13:04.859Z,39.70
2018-03-03T14:15:31.319Z,39.40
2018-03-03T14:17:57.778Z,39.80
2018-03-03T14:20:24.371Z,39.80
2018-03-03T14:22:51.520Z,39.80
2018-03-03T14:25:17.810Z,39.40
2018-03-03T14:27:44.528Z,39.00
2018-03-03T14:30:10.894Z,39.30
2018-03-03T14:32:37.902Z,39.60
2018-03-03T14:35:04.999Z,39.90
2018-03-03T14:37:31.532Z,39.90
2018-03-03T14:39:58.604Z,40.40
2018-03-03T14:42:24.910Z,40.20
2018-03-03T14:44:52.003Z,40.40
2018-03-03T14:47:18.272Z,40.40
2018-03-03T14:49:44.524Z,40.30
2018-03-03T14:52:10.863Z,40.40
2018-03-03T14:54:37.170Z,40.30
2018-03-03T14:57:03.508Z,40.30
2018-03-03T14:59:29.894Z,40.60
2018-03-03T15:01:57.008Z,40.60
2018-03-03T15:04:23.246Z,40.60
2018-03-03T15:06:49.524Z,40.80
2018-03-03T15:09:15.974Z,41.40
2018-03-03T15:11:42.233Z,41.20
2018-03-03T15:14:09.320Z,40.90
2018-03-03T15:16:36.301Z,41.30
2018-03-03T15:19:02.723Z,41.30
2018-03-03T15:21:29.769Z,41.00
2018-03-03T15:23:56.119Z,41.00
2018-03-03T15:26:26.626Z,40.10
2018-03-03T15:28:52.988Z,40.60
2018-03-03T15:31:19.298Z,40.80
2018-03-03T15:33:45.541Z,41.40
2018-03-03T15:36:11.870Z,40.50
2018-03-03T15:38:38.162Z,40.60
2018-03-03T15:41:04.502Z,40.30
2018-03-03T15:43:30.882Z,39.70
2018-03-03T15:45:57.183Z,39.40
2018-03-03T15:48:23.571Z,39.40
2018-03-03T15:50:49.855Z,39.80
2018-03-03T15:53:16.203Z,40.50
2018-03-03T15:55:42.458Z,40.30
2018-03-03T15:58:08.716Z,40.30
2018-03-03T16:00:35.940Z,40.30
2018-03-03T16:03:02.243Z,40.20
2018-03-03T16:05:29.837Z,39.90
2018-03-03T16:07:56.114Z,40.20
2018-03-03T16:10:22.558Z,40.20
2018-03-03T16:12:48.901Z,39.90
2018-03-03T16:15:17.228Z,40.20
2018-03-03T16:17:44.705Z,40.60
2018-03-03T16:20:11.701Z,42.50
2018-03-03T16:22:38.071Z,42.60
2018-03-03T16:25:04.383Z,40.70
2018-03-03T16:27:31.725Z,40.60
2018-03-03T16:29:58.136Z,40.50
2018-03-03T16:32:24.462Z,40.40
2018-03-03T16:34:50.783Z,40.20
2018-03-03T16:37:17.282Z,40.00
2018-03-03T16:39:44.326Z,40.60
2018-03-03T16:42:10.753Z,40.60
2018-03-03T16:44:37.006Z,40.70
2018-03-03T16:47:03.353Z,40.80
2018-03-03T16:49:30.103Z,40.70
2018-03-03T16:51:56.431Z,40.80
2018-03-03T16:54:22.714Z,40.50
2018-03-03T16:56:49.701Z,39.50
2018-03-03T16:59:16.100Z,39.50
2018-03-03T17:01:42.551Z,39.40
2018-03-03T17:04:09.586Z,39.80
2018-03-03T17:06:35.930Z,39.60
2018-03-03T17:09:02.341Z,39.80
2018-03-03T17:11:29.878Z,39.80
2018-03-03T17:13:56.275Z,40.10
2018-03-03T17:16:22.624Z,39.80
2018-03-03T17:18:52.856Z,39.70
2018-03-03T17:21:19.176Z,39.70
2018-03-03T17:23:45.440Z,39.50
2018-03-03T17:26:11.729Z,39.50
2018-03-03T17:28:38.706Z,40.40
2018-03-03T17:31:04.978Z,40.30
2018-03-03T17:33:31.448Z,40.40
2018-03-03T17:35:57.901Z,40.00
2018-03-03T17:38:29.827Z,40.30
2018-03-03T17:40:56.251Z,40.20
2018-03-03T17:43:23.316Z,40.50
2018-03-03T17:45:49.601Z,40.50
2018-03-03T17:48:15.859Z,39.60
2018-03-03T17:50:43.244Z,39.20
2018-03-03T17:53:10.518Z,39.40
2018-03-03T17:55:48.100Z,39.50
2018-03-03T17:58:14.481Z,39.40
2018-03-03T18:00:40.953Z,39.40
2018-03-03T18:03:07.986Z,39.90
2018-03-03T18:05:34.361Z,40.00
2018-03-03T18:08:00.836Z,40.10
2018-03-03T18:10:27.352Z,39.90
2018-03-03T18:12:54.508Z,40.40
2018-03-03T18:15:22.797Z,40.20
2018-03-03T18:17:49.066Z,40.30
2018-03-03T18:20:15.335Z,40.40
2018-03-03T18:22:42.358Z,39.80
2018-03-03T18:25:08.610Z,39.50
2018-03-03T18:27:34.952Z,39.40
2018-03-03T18:30:01.492Z,39.50
2018-03-03T18:32:28.412Z,39.40
2018-03-03T18:34:55.211Z,39.70
2018-03-03T18:37:21.710Z,39.90
2018-03-03T18:39:48.031Z,39.90
2018-03-03T18:42:14.253Z,40.10
2018-03-03T18:44:40.682Z,39.50
2018-03-03T18:47:06.915Z,40.00
2018-03-03T18:49:33.311Z,39.80
2018-03-03T18:52:00.707Z,40.20
2018-03-03T18:54:26.994Z,40.20
2018-03-03T18:56:54.273Z,40.30
2018-03-03T18:59:20.518Z,40.30
2018-03-03T19:01:46.840Z,40.30
2018-03-03T19:04:13.089Z,40.20
2018-03-03T19:06:39.448Z,40.60
2018-03-03T19:09:05.709Z,40.60
2018-03-03T19:11:32.705Z,40.40
2018-03-03T19:13:59.341Z,40.40
2018-03-03T19:16:25.623Z,40.50
2018-03-03T19:18:52.036Z,39.90
2018-03-03T19:21:18.351Z,40.00
2018-03-03T19:23:45.435Z,40.80
2018-03-03T19:26:11.673Z,40.20
2018-03-03T19:28:37.960Z,40.80
2018-03-03T19:31:04.388Z,41.10
2018-03-03T19:33:30.966Z,41.00
2018-03-03T19:35:57.505Z,40.60
2018-03-03T19:38:23.950Z,40.80
2018-03-03T19:40:50.531Z,40.80
2018-03-03T19:43:19.656Z,41.30
2018-03-03T19:45:45.938Z,41.30
2018-03-03T19:48:12.244Z,40.90
2018-03-03T19:50:38.502Z,41.10
2018-03-03T19:53:04.759Z,41.20
2018-03-03T19:55:31.187Z,41.50
2018-03-03T19:57:57.455Z,41.70
2018-03-03T20:00:23.858Z,41.90
2018-03-03T20:02:54.022Z,41.90
2018-03-03T20:05:20.478Z,41.90
2018-03-03T20:07:46.940Z,42.00
2018-03-03T20:10:13.190Z,42.20
2018-03-03T20:12:40.233Z,42.30
2018-03-03T20:15:06.615Z,42.30
2018-03-03T20:17:33.100Z,42.20
2018-03-03T20:19:59.716Z,42.10
2018-03-03T20:22:26.156Z,42.20
2018-03-03T20:24:53.715Z,42.40
2018-03-03T20:27:20.074Z,42.60
2018-03-03T20:29:47.085Z,42.40
2018-03-03T20:32:14.108Z,42.20
2018-03-03T20:34:40.345Z,42.20
2018-03-03T20:37:06.906Z,42.10
2018-03-03T20:39:33.542Z,42.00
2018-03-03T20:42:00.131Z,42.00
2018-03-03T20:44:26.692Z,42.40
2018-03-03T20:46:53.208Z,42.30
2018-03-03T20:49:20.293Z,42.30
2018-03-03T20:51:46.745Z,42.30
2018-03-03T20:54:13.040Z,42.20
2018-03-03T20:59:53.561Z,42.20
2018-03-03T21:02:19.929Z,42.10
2018-03-03T21:04:46.189Z,42.10
2018-03-03T21:07:12.470Z,41.70
2018-03-03T21:09:39.542Z,42.00
2018-03-03T21:12:06.733Z,41.90
2018-03-03T21:14:33.272Z,41.90
2018-03-03T21:16:59.594Z,42.70
2018-03-03T21:19:26.008Z,40.90
2018-03-03T21:21:53.184Z,40.40
2018-03-03T21:24:19.521Z,40.40
2018-03-03T21:26:51.810Z,40.60
2018-03-03T21:29:19.227Z,41.40
2018-03-03T21:31:45.505Z,41.40
2018-03-03T21:34:11.840Z,41.40
2018-03-03T21:36:38.179Z,42.00
2018-03-03T21:39:04.494Z,38.90
2018-03-03T21:41:30.786Z,39.20
2018-03-03T21:43:57.841Z,38.80
2018-03-03T21:46:24.895Z,39.50
2018-03-03T21:48:51.130Z,39.20
2018-03-03T21:51:17.531Z,40.00
2018-03-03T21:53:43.838Z,40.90
2018-03-03T21:56:10.869Z,39.40
2018-03-03T21:58:37.152Z,39.50
2018-03-03T22:01:03.541Z,39.90
2018-03-03T22:03:29.836Z,40.60
2018-03-03T22:05:56.186Z,40.20
2018-03-03T22:08:23.294Z,40.60
2018-03-03T22:10:49.598Z,40.60
2018-03-03T22:13:15.867Z,40.40
2018-03-03T22:15:42.131Z,40.30
2018-03-03T22:18:08.443Z,40.30
2018-03-03T22:20:34.754Z,40.60
2018-03-03T22:23:01.133Z,40.50
2018-03-03T22:25:27.773Z,40.40
2018-03-03T22:27:54.173Z,40.50
2018-03-03T22:30:21.266Z,40.80
2018-03-03T22:32:47.502Z,40.70
2018-03-03T22:35:13.773Z,40.90
2018-03-03T22:37:40.062Z,40.50
2018-03-03T22:40:06.479Z,41.30
2018-03-03T22:42:32.883Z,41.00
2018-03-03T22:44:59.522Z,40.80
2018-03-03T22:47:26.664Z,41.10
2018-03-03T22:49:52.981Z,41.00
2018-03-03T22:52:19.296Z,41.80
2018-03-03T22:54:45.547Z,40.40
2018-03-03T22:57:11.769Z,39.90
2018-03-03T22:59:38.050Z,40.60
2018-03-03T23:02:04.470Z,41.30
2018-03-03T23:04:31.528Z,39.80
2018-03-03T23:06:58.112Z,39.80
2018-03-03T23:09:24.418Z,40.10
2018-03-03T23:11:50.725Z,40.90
2018-03-03T23:14:17.012Z,40.70
2018-03-03T23:16:46.790Z,41.60
2018-03-03T23:19:13.054Z,42.80
2018-03-03T23:21:39.336Z,41.10
2018-03-03T23:24:05.662Z,41.10
2018-03-03T23:26:31.934Z,41.20
2018-03-03T23:28:58.641Z,41.30
2018-03-03T23:31:31.872Z,41.60
2018-03-03T23:33:59.141Z,42.30
2018-03-03T23:36:25.712Z,41.70
2018-03-03T23:38:51.980Z,41.40
2018-03-03T23:41:19.034Z,41.60
2018-03-03T23:43:46.063Z,42.20
2018-03-03T23:46:12.380Z,42.20
2018-03-03T23:48:38.737Z,43.10
2018-03-03T23:51:05.023Z,42.60
2018-03-03T23:53:34.061Z,42.90
2018-03-03T23:56:00.408Z,43.00
2018-03-03T23:58:26.669Z,42.30
